createdAt,value
2022-10-07T00:01:29.936Z,41.20
2022-10-07T00:04:16.086Z,41.31
2022-10-07T00:07:02.003Z,41.19
2022-10-07T00:09:47.895Z,41.37
2022-10-07T00:12:33.735Z,41.22
2022-10-07T00:15:19.935Z,41.22
2022-10-07T00:18:08.072Z,41.45
2022-10-07T00:20:54.238Z,41.52
2022-10-07T00:23:44.543Z,41.49
2022-10-07T00:26:32.702Z,41.55
2022-10-07T00:29:18.704Z,41.55
2022-10-07T00:32:04.667Z,41.77
2022-10-07T00:34:50.797Z,41.66
2022-10-07T00:37:48.240Z,41.82
2022-10-07T00:40:34.943Z,41.63
2022-10-07T00:43:27.267Z,41.86
2022-10-07T00:46:53.683Z,41.98
2022-10-07T00:50:07.570Z,42.22
2022-10-07T00:52:57.052Z,42.16
2022-10-07T00:55:46.886Z,41.99
2022-10-07T00:58:36.222Z,42.11
2022-10-07T01:01:22.258Z,42.16
2022-10-07T01:04:12.550Z,42.13
2022-10-07T01:06:59.133Z,42.25
2022-10-07T01:09:46.496Z,42.09
2022-10-07T01:13:09.174Z,42.84
2022-10-07T01:16:03.089Z,42.24
2022-10-07T01:19:00.130Z,42.61
2022-10-07T01:22:03.977Z,42.82
2022-10-07T01:25:12.559Z,42.88
2022-10-07T01:28:08.209Z,42.48
2022-10-07T01:30:58.906Z,42.75
2022-10-07T01:33:45.986Z,42.65
2022-10-07T01:36:33.897Z,42.79
2022-10-07T01:39:23.819Z,42.81
2022-10-07T01:42:09.791Z,42.69
2022-10-07T01:44:58.208Z,42.85
2022-10-07T01:47:44.174Z,42.94
2022-10-07T01:50:31.806Z,42.90
2022-10-07T01:53:42.012Z,42.89
2022-10-07T01:56:31.025Z,42.89
2022-10-07T01:59:34.601Z,43.10
2022-10-07T02:02:29.499Z,43.20
2022-10-07T02:05:28.920Z,43.13
2022-10-07T02:08:33.730Z,43.36
2022-10-07T02:11:29.814Z,43.00
2022-10-07T02:14:36.993Z,43.15
2022-10-07T02:17:23.686Z,43.50
2022-10-07T02:20:11.628Z,43.26
2022-10-07T02:22:58.959Z,43.39
2022-10-07T02:25:47.946Z,43.23
2022-10-07T02:28:35.697Z,43.42
2022-10-07T02:31:24.816Z,43.70
2022-10-07T02:34:18.911Z,43.76
2022-10-07T02:37:14.905Z,43.58
2022-10-07T02:40:02.725Z,43.61
2022-10-07T02:42:56.918Z,43.93
2022-10-07T02:45:50.031Z,43.53
2022-10-07T02:48:40.213Z,43.71
2022-10-07T02:51:39.490Z,43.86
2022-10-07T02:54:49.545Z,44.25
2022-10-07T02:57:39.455Z,43.87
2022-10-07T03:00:25.676Z,43.89
2022-10-07T03:03:12.387Z,43.87
2022-10-07T03:06:23.410Z,43.63
2022-10-07T03:09:11.245Z,43.74
2022-10-07T03:11:57.486Z,43.59
2022-10-07T03:14:45.003Z,43.77
2022-10-07T03:17:30.744Z,43.92
2022-10-07T03:20:20.848Z,44.02
2022-10-07T03:23:06.892Z,43.91
2022-10-07T03:25:54.172Z,43.92
2022-10-07T03:28:41.792Z,43.78
2022-10-07T03:31:28.264Z,44.04
2022-10-07T03:34:16.809Z,43.99
2022-10-07T03:37:06.051Z,43.84
2022-10-07T03:39:53.842Z,44.05
2022-10-07T03:42:43.518Z,44.05
2022-10-07T03:45:32.102Z,44.10
2022-10-07T03:48:18.804Z,44.23
2022-10-07T03:51:04.723Z,44.11
2022-10-07T03:53:57.608Z,44.21
2022-10-07T03:56:46.648Z,43.90
2022-10-07T03:59:33.408Z,44.31
2022-10-07T04:02:20.625Z,44.14
2022-10-07T04:05:07.269Z,44.27
2022-10-07T04:07:54.445Z,44.19
2022-10-07T04:10:41.326Z,44.09
2022-10-07T04:13:28.132Z,44.49
2022-10-07T04:16:14.308Z,44.49
2022-10-07T04:19:00.993Z,44.17
2022-10-07T04:21:48.269Z,44.52
2022-10-07T04:24:34.452Z,44.41
2022-10-07T04:27:46.778Z,44.66
2022-10-07T04:30:33.899Z,44.68
2022-10-07T04:33:21.478Z,44.70
2022-10-07T04:36:09.853Z,44.55
2022-10-07T04:39:05.394Z,44.60
2022-10-07T04:41:55.595Z,44.59
2022-10-07T04:44:47.630Z,44.82
2022-10-07T04:47:35.634Z,44.76
2022-10-07T04:50:22.972Z,44.75
2022-10-07T04:53:17.581Z,44.87
2022-10-07T04:56:11.384Z,45.05
2022-10-07T04:58:57.638Z,44.85
2022-10-07T05:01:43.665Z,44.95
2022-10-07T05:04:29.992Z,44.94
2022-10-07T05:07:18.339Z,45.04
2022-10-07T05:10:05.089Z,44.78
2022-10-07T05:12:55.707Z,45.12
2022-10-07T05:15:56.991Z,45.67
2022-10-07T05:18:43.570Z,45.20
2022-10-07T05:21:33.566Z,44.87
2022-10-07T05:24:21.107Z,45.41
2022-10-07T05:27:07.098Z,44.94
2022-10-07T05:29:53.134Z,45.34
2022-10-07T05:32:40.071Z,44.95
2022-10-07T05:35:26.375Z,45.25
2022-10-07T05:38:13.239Z,45.15
2022-10-07T05:41:12.390Z,45.37
2022-10-07T05:44:01.301Z,45.04
2022-10-07T05:46:47.629Z,45.06
2022-10-07T05:49:36.353Z,45.47
2022-10-07T05:52:23.059Z,45.22
2022-10-07T05:55:09.941Z,45.17
2022-10-07T05:57:55.919Z,45.53
2022-10-07T06:01:11.606Z,45.49
2022-10-07T06:04:00.736Z,45.35
2022-10-07T06:06:50.252Z,45.46
2022-10-07T06:10:08.225Z,45.23
2022-10-07T06:13:15.231Z,45.84
2022-10-07T06:16:28.175Z,45.66
2022-10-07T06:23:49.155Z,46.11
2022-10-07T06:26:35.137Z,45.50
2022-10-07T06:29:22.328Z,45.39
2022-10-07T06:32:08.639Z,45.79
2022-10-07T06:34:54.401Z,45.44
2022-10-07T06:37:40.865Z,45.42
2022-10-07T06:40:28.126Z,45.73
2022-10-07T06:43:13.846Z,45.70
2022-10-07T06:46:06.313Z,45.46
2022-10-07T06:48:52.813Z,45.95
2022-10-07T06:51:38.699Z,45.68
2022-10-07T06:54:25.390Z,45.82
2022-10-07T06:57:40.194Z,45.68
2022-10-07T07:00:36.598Z,46.80
2022-10-07T07:03:24.350Z,45.73
2022-10-07T07:06:14.932Z,45.49
2022-10-07T07:09:04.687Z,45.64
2022-10-07T07:11:56.437Z,45.91
2022-10-07T07:14:52.230Z,45.63
2022-10-07T07:17:40.392Z,45.59
2022-10-07T07:20:35.096Z,45.77
2022-10-07T07:23:21.279Z,45.81
2022-10-07T07:26:07.203Z,46.07
2022-10-07T07:29:02.393Z,45.92
2022-10-07T07:31:54.894Z,46.00
2022-10-07T07:34:44.069Z,45.80
2022-10-07T07:37:36.250Z,45.91
2022-10-07T07:40:23.280Z,46.36
2022-10-07T07:43:09.718Z,45.83
2022-10-07T07:45:59.042Z,46.00
2022-10-07T07:48:45.525Z,45.87
2022-10-07T07:51:32.984Z,45.87
2022-10-07T07:54:19.798Z,45.96
2022-10-07T07:57:08.359Z,45.97
2022-10-07T07:59:55.270Z,45.79
2022-10-07T08:02:43.604Z,45.82
2022-10-07T08:05:35.206Z,45.68
2022-10-07T08:08:22.090Z,45.85
2022-10-07T08:11:19.041Z,45.99
2022-10-07T08:14:08.039Z,45.89
2022-10-07T08:16:57.513Z,45.85
2022-10-07T08:19:45.376Z,45.85
2022-10-07T08:22:31.994Z,45.72
2022-10-07T08:25:18.415Z,45.51
2022-10-07T08:28:05.349Z,45.81
2022-10-07T08:30:52.200Z,45.61
2022-10-07T08:33:40.806Z,45.67
2022-10-07T08:36:29.208Z,45.81
2022-10-07T08:39:15.793Z,45.48
2022-10-07T08:42:16.383Z,45.63
2022-10-07T08:45:02.966Z,45.38
2022-10-07T08:47:50.715Z,45.66
2022-10-07T08:50:45.584Z,45.39
2022-10-07T08:53:36.849Z,45.29
2022-10-07T08:56:23.819Z,45.39
2022-10-07T08:59:28.450Z,45.70
2022-10-07T09:02:34.503Z,45.55
2022-10-07T09:05:24.743Z,45.34
2022-10-07T09:08:28.509Z,45.37
2022-10-07T09:11:20.538Z,45.42
2022-10-07T09:14:20.839Z,45.25
2022-10-07T09:17:15.401Z,45.35
2022-10-07T09:20:16.525Z,45.09
2022-10-07T09:23:05.206Z,45.26
2022-10-07T09:25:54.693Z,45.33
2022-10-07T09:28:41.133Z,45.04
2022-10-07T09:31:27.170Z,45.24
2022-10-07T09:34:29.015Z,45.15
2022-10-07T09:37:21.066Z,44.97
2022-10-07T09:40:25.827Z,44.10
2022-10-07T09:43:15.605Z,43.36
2022-10-07T09:46:02.115Z,42.89
2022-10-07T09:48:55.922Z,42.26
2022-10-07T09:51:41.779Z,41.95
2022-10-07T09:54:29.975Z,41.57
2022-10-07T09:57:36.018Z,41.09
2022-10-07T10:00:25.688Z,40.74
2022-10-07T10:03:12.153Z,40.63
2022-10-07T10:06:03.267Z,40.34
2022-10-07T10:08:56.230Z,40.17
2022-10-07T10:11:44.073Z,39.98
2022-10-07T10:14:58.736Z,39.86
2022-10-07T10:17:44.570Z,39.64
2022-10-07T10:20:35.972Z,39.54
2022-10-07T10:23:37.421Z,39.26
2022-10-07T10:26:42.072Z,39.32
2022-10-07T10:29:59.010Z,39.13
2022-10-07T10:33:23.522Z,38.95
2022-10-07T10:36:22.870Z,38.96
2022-10-07T10:39:19.914Z,38.76
2022-10-07T10:42:10.651Z,38.51
2022-10-07T10:45:30.264Z,38.43
2022-10-07T10:48:37.443Z,38.10
2022-10-07T10:51:48.001Z,37.93
2022-10-07T10:55:05.694Z,37.93
2022-10-07T10:58:24.051Z,38.01
2022-10-07T11:01:15.766Z,37.95
2022-10-07T11:04:04.678Z,37.81
2022-10-07T11:06:56.187Z,37.34
2022-10-07T11:09:46.666Z,36.83
2022-10-07T11:12:54.890Z,35.97
2022-10-07T11:16:01.774Z,35.75
2022-10-07T11:19:00.973Z,34.93
2022-10-07T11:21:49.704Z,34.68
2022-10-07T11:24:44.197Z,34.15
2022-10-07T11:27:33.055Z,33.56
2022-10-07T11:30:22.122Z,33.11
2022-10-07T11:33:19.430Z,32.86
2022-10-07T11:36:14.419Z,32.26
2022-10-07T11:39:00.915Z,31.73
2022-10-07T11:42:06.978Z,30.97
2022-10-07T11:45:05.808Z,30.43
2022-10-07T11:48:06.237Z,30.27
2022-10-07T11:51:24.874Z,29.66
2022-10-07T11:54:14.837Z,29.88
2022-10-07T11:57:01.051Z,29.00
2022-10-07T11:59:59.993Z,28.11
2022-10-07T12:02:47.533Z,26.82
2022-10-07T12:05:36.679Z,25.83
2022-10-07T12:08:29.286Z,25.04
2022-10-07T12:11:16.332Z,24.33
2022-10-07T12:14:32.408Z,23.25
2022-10-07T12:17:24.292Z,22.34
2022-10-07T12:20:35.377Z,21.80
2022-10-07T12:23:25.915Z,21.41
2022-10-07T12:26:41.710Z,20.49
2022-10-07T12:29:43.979Z,20.25
2022-10-07T12:32:52.230Z,19.67
2022-10-07T12:35:48.772Z,19.60
2022-10-07T12:38:38.932Z,19.19
2022-10-07T12:41:28.273Z,18.79
2022-10-07T12:44:26.771Z,18.54
2022-10-07T12:47:23.453Z,18.81
2022-10-07T12:50:12.950Z,18.10
2022-10-07T12:53:01.766Z,18.23
2022-10-07T12:55:50.213Z,17.95
2022-10-07T12:59:10.076Z,17.90
2022-10-07T13:02:24.324Z,17.17
2022-10-07T13:05:39.070Z,17.66
2022-10-07T13:08:35.105Z,17.56
2022-10-07T13:11:54.912Z,16.79
2022-10-07T13:14:46.969Z,17.31
2022-10-07T13:17:39.474Z,16.48
2022-10-07T13:20:34.624Z,17.33
2022-10-07T13:23:26.765Z,17.39
2022-10-07T13:26:14.627Z,16.93
2022-10-07T13:29:01.047Z,17.15
2022-10-07T13:32:02.507Z,16.60
2022-10-07T13:34:48.507Z,16.81
2022-10-07T13:37:38.282Z,17.03
2022-10-07T13:40:35.548Z,16.47
2022-10-07T13:43:23.452Z,16.71
2022-10-07T13:46:10.187Z,16.77
2022-10-07T13:48:56.917Z,16.61
2022-10-07T13:51:43.124Z,16.50
2022-10-07T13:54:31.216Z,16.65
2022-10-07T13:57:21.259Z,16.61
2022-10-07T14:00:11.158Z,16.52
2022-10-07T14:02:58.677Z,17.04
2022-10-07T14:05:52.039Z,17.58
2022-10-07T14:08:50.538Z,18.46
2022-10-07T14:11:36.750Z,18.45
2022-10-07T14:14:29.229Z,18.16
2022-10-07T14:18:07.951Z,17.99
2022-10-07T14:21:08.228Z,17.67
2022-10-07T14:23:54.090Z,18.20
2022-10-07T14:26:44.848Z,18.11
2022-10-07T14:29:37.753Z,18.38
2022-10-07T14:32:42.495Z,18.56
2022-10-07T14:35:29.290Z,18.90
2022-10-07T14:38:29.399Z,19.37
2022-10-07T14:41:17.627Z,19.83
2022-10-07T14:44:03.829Z,19.90
2022-10-07T14:46:50.149Z,20.26
2022-10-07T14:49:36.439Z,20.47
2022-10-07T14:52:28.907Z,20.94
2022-10-07T14:55:22.718Z,20.98
2022-10-07T14:58:10.849Z,21.30
2022-10-07T15:00:56.808Z,21.38
2022-10-07T15:03:42.748Z,21.65
2022-10-07T15:06:29.356Z,21.93
2022-10-07T15:09:16.228Z,22.23
2022-10-07T15:12:02.245Z,22.41
2022-10-07T15:14:48.575Z,22.25
2022-10-07T15:17:34.590Z,22.28
2022-10-07T15:20:21.320Z,22.68
2022-10-07T15:23:08.432Z,22.92
2022-10-07T15:25:54.366Z,23.06
2022-10-07T15:28:40.486Z,22.85
2022-10-07T15:31:28.224Z,23.97
2022-10-07T15:34:14.194Z,24.72
2022-10-07T15:37:00.841Z,25.34
2022-10-07T15:39:47.066Z,25.84
2022-10-07T15:42:33.290Z,26.29
2022-10-07T15:45:19.506Z,26.74
2022-10-07T15:48:05.783Z,27.22
2022-10-07T15:50:53.943Z,27.54
2022-10-07T15:53:40.111Z,27.84
2022-10-07T15:56:26.180Z,28.03
2022-10-07T15:59:12.098Z,28.36
2022-10-07T16:01:58.125Z,28.80
2022-10-07T16:04:45.111Z,28.98
2022-10-07T16:07:31.776Z,29.06
2022-10-07T16:10:17.649Z,29.31
2022-10-07T16:13:03.734Z,29.70
2022-10-07T16:15:57.851Z,29.99
2022-10-07T16:18:46.377Z,29.88
2022-10-07T16:21:41.194Z,30.19
2022-10-07T16:24:31.191Z,30.28
2022-10-07T16:27:20.091Z,30.35
2022-10-07T16:30:25.181Z,30.75
2022-10-07T16:33:11.314Z,30.96
2022-10-07T16:35:58.499Z,31.04
2022-10-07T16:38:44.320Z,31.12
2022-10-07T16:41:31.059Z,31.39
2022-10-07T16:44:17.031Z,31.50
2022-10-07T16:47:03.261Z,31.63
2022-10-07T16:49:49.401Z,31.97
2022-10-07T16:52:35.160Z,31.72
2022-10-07T16:55:21.291Z,31.98
2022-10-07T16:58:07.021Z,32.22
2022-10-07T17:00:52.747Z,32.48
2022-10-07T17:03:43.329Z,32.56
2022-10-07T17:06:30.559Z,32.78
2022-10-07T17:09:17.865Z,32.78
2022-10-07T17:12:06.860Z,33.09
2022-10-07T17:14:52.805Z,33.35
2022-10-07T17:17:39.153Z,33.36
2022-10-07T17:20:25.719Z,33.68
2022-10-07T17:23:11.413Z,33.82
2022-10-07T17:25:57.156Z,33.91
2022-10-07T17:28:43.230Z,34.13
2022-10-07T17:31:30.617Z,34.33
2022-10-07T17:34:17.399Z,34.46
2022-10-07T17:37:03.232Z,34.82
2022-10-07T17:39:49.410Z,35.08
2022-10-07T17:42:35.232Z,34.97
2022-10-07T17:45:21.285Z,35.31
2022-10-07T17:48:25.507Z,36.47
2022-10-07T17:51:18.995Z,35.74
2022-10-07T17:54:06.013Z,35.90
2022-10-07T17:56:52.329Z,35.71
2022-10-07T17:59:38.893Z,36.07
2022-10-07T18:02:24.776Z,36.04
2022-10-07T18:05:11.330Z,36.40
2022-10-07T18:07:58.278Z,36.46
2022-10-07T18:10:44.822Z,36.92
2022-10-07T18:13:53.022Z,37.37
2022-10-07T18:16:39.217Z,37.17
2022-10-07T18:19:26.648Z,37.24
2022-10-07T18:22:12.761Z,37.58
2022-10-07T18:24:58.583Z,37.50
2022-10-07T18:27:44.781Z,38.03
2022-10-07T18:30:30.860Z,37.95
2022-10-07T18:33:16.773Z,38.38
2022-10-07T18:36:07.384Z,38.62
2022-10-07T18:38:53.552Z,38.36
2022-10-07T18:41:40.231Z,38.55
2022-10-07T18:44:26.708Z,38.51
2022-10-07T18:47:12.499Z,38.72
2022-10-07T18:49:58.617Z,38.93
2022-10-07T18:52:44.700Z,39.30
2022-10-07T18:55:30.798Z,39.22
2022-10-07T18:58:16.884Z,39.29
2022-10-07T19:01:20.083Z,39.88
2022-10-07T19:04:07.741Z,39.51
2022-10-07T19:06:53.833Z,39.74
2022-10-07T19:09:39.964Z,40.04
2022-10-07T19:12:58.368Z,40.03
2022-10-07T19:15:44.453Z,40.62
2022-10-07T19:18:33.652Z,40.55
2022-10-07T19:21:20.217Z,40.59
2022-10-07T19:24:06.857Z,40.72
2022-10-07T19:26:54.088Z,40.90
2022-10-07T19:29:39.871Z,41.10
2022-10-07T19:32:25.726Z,41.07
2022-10-07T19:35:12.067Z,41.47
2022-10-07T19:37:58.020Z,41.38
2022-10-07T19:40:45.271Z,41.47
2022-10-07T19:43:33.059Z,41.80
2022-10-07T19:46:20.805Z,41.68
2022-10-07T19:49:07.345Z,41.85
2022-10-07T19:51:53.523Z,42.19
2022-10-07T19:54:45.321Z,42.52
2022-10-07T19:57:31.564Z,42.33
2022-10-07T20:00:17.928Z,42.53
2022-10-07T20:03:03.824Z,42.47
2022-10-07T20:05:49.754Z,42.80
2022-10-07T20:08:43.850Z,42.82
2022-10-07T20:11:30.082Z,42.89
2022-10-07T20:14:16.371Z,43.12
2022-10-07T20:17:02.356Z,42.85
2022-10-07T20:19:48.588Z,43.17
2022-10-07T20:22:35.031Z,43.28
2022-10-07T20:25:21.014Z,43.45
2022-10-07T20:28:06.801Z,43.51
2022-10-07T20:30:53.111Z,43.75
2022-10-07T20:33:50.090Z,43.96
2022-10-07T20:36:38.182Z,44.02
2022-10-07T20:39:42.810Z,43.80
2022-10-07T20:42:30.364Z,44.02
2022-10-07T20:45:16.262Z,44.12
2022-10-07T20:48:05.730Z,44.63
2022-10-07T20:50:54.082Z,44.75
2022-10-07T20:53:40.667Z,44.88
2022-10-07T20:56:26.509Z,44.98
2022-10-07T20:59:13.135Z,45.31
2022-10-07T21:02:00.298Z,45.40
2022-10-07T21:04:49.213Z,45.03
2022-10-07T21:07:34.991Z,45.19
2022-10-07T21:10:21.699Z,45.08
2022-10-07T21:13:07.727Z,45.45
2022-10-07T21:15:55.093Z,45.71
2022-10-07T21:18:41.564Z,45.54
2022-10-07T21:21:27.958Z,45.61
2022-10-07T21:24:14.689Z,45.52
2022-10-07T21:27:02.905Z,45.88
2022-10-07T21:29:48.916Z,45.67
2022-10-07T21:32:34.489Z,45.76
2022-10-07T21:35:20.281Z,45.66
2022-10-07T21:38:05.973Z,45.85
2022-10-07T21:40:51.758Z,46.27
2022-10-07T21:43:38.422Z,45.84
2022-10-07T21:46:26.283Z,46.30
2022-10-07T21:49:14.249Z,46.10
2022-10-07T21:51:59.963Z,46.22
2022-10-07T21:54:46.083Z,46.48
2022-10-07T21:57:32.049Z,46.49
2022-10-07T22:00:18.179Z,46.37
2022-10-07T22:03:04.109Z,46.54
2022-10-07T22:06:07.873Z,46.85
2022-10-07T22:08:56.425Z,46.73
2022-10-07T22:11:43.007Z,46.68
2022-10-07T22:14:28.835Z,46.90
2022-10-07T22:17:15.081Z,47.12
2022-10-07T22:20:01.311Z,47.12
2022-10-07T22:22:47.250Z,47.37
2022-10-07T22:25:33.143Z,47.41
2022-10-07T22:28:18.965Z,47.33
2022-10-07T22:31:07.080Z,48.10
2022-10-07T22:33:58.535Z,47.63
2022-10-07T22:36:44.624Z,47.62
2022-10-07T22:39:31.096Z,47.35
2022-10-07T22:42:18.415Z,47.66
2022-10-07T22:45:06.401Z,47.83
2022-10-07T22:47:52.259Z,47.83
2022-10-07T22:50:37.998Z,47.90
2022-10-07T22:53:26.371Z,47.93
2022-10-07T22:56:14.660Z,48.17
2022-10-07T22:59:00.693Z,48.24
2022-10-07T23:01:46.765Z,48.32
2022-10-07T23:04:32.436Z,48.53
2022-10-07T23:07:18.569Z,48.60
2022-10-07T23:10:04.883Z,48.34
2022-10-07T23:12:50.646Z,48.49
2022-10-07T23:15:36.332Z,48.27
2022-10-07T23:18:22.154Z,48.15
2022-10-07T23:21:11.910Z,48.74
2022-10-07T23:24:06.812Z,48.58
2022-10-07T23:26:58.763Z,48.50
2022-10-07T23:29:44.831Z,48.77
2022-10-07T23:32:31.400Z,48.68
2022-10-07T23:35:17.155Z,49.12
2022-10-07T23:38:02.825Z,48.63
2022-10-07T23:40:49.667Z,48.83
2022-10-07T23:43:35.562Z,49.02
2022-10-07T23:46:23.374Z,48.74
2022-10-07T23:49:09.585Z,49.32
2022-10-07T23:51:55.316Z,49.58
2022-10-07T23:54:41.201Z,49.38
2022-10-07T23:57:27.326Z,49.29
